📊 Raw Sensor Data

Showing records 43001 to 43025 of 85,009 total

ID Distance (ft) Battery V Battery A Int Temp (°F) Int Humid (%) Ext Temp (°F) Solar V RSSI SNR Time Stamp
42021 15.2 3.91 -5 74 53 73 0.00 -73 8 05/29/2025 08:45 PM
42020 15.2 3.90 -9 76 55 74 1.70 -72 8 05/29/2025 08:30 PM
42019 15.3 3.91 -5 80 55 77 4.50 -74 6 05/29/2025 08:15 PM
42018 15.3 3.98 0 85 54 80 4.50 -73 8 05/29/2025 08:00 PM
42017 15.4 3.99 5 88 53 83 4.50 -74 7 05/29/2025 07:45 PM
42016 15.4 3.94 9 92 52 85 4.50 -75 8 05/29/2025 07:30 PM
42015 15.4 4.00 7 94 52 86 4.60 -73 8 05/29/2025 07:15 PM
42014 15.5 3.97 0 96 51 88 4.60 -73 8 05/29/2025 07:00 PM
42013 15.5 3.99 10 97 51 90 4.50 -74 8 05/29/2025 06:45 PM
42012 15.5 4.04 59 99 51 90 4.50 -74 7 05/29/2025 06:30 PM
42011 15.5 3.95 0 100 50 91 5.10 -74 7 05/29/2025 06:15 PM
42010 15.5 3.95 7 101 50 90 5.10 -72 8 05/29/2025 06:00 PM
42009 15.5 3.95 7 104 48 92 5.10 -74 7 05/29/2025 05:45 PM
42008 15.5 3.95 7 105 47 96 5.10 -74 8 05/29/2025 05:30 PM
42007 15.5 3.95 0 105 46 93 5.10 -74 7 05/29/2025 05:15 PM
42006 15.5 3.95 7 104 46 97 5.10 -75 8 05/29/2025 05:00 PM
42005 15.5 3.95 7 105 44 95 5.10 -74 7 05/29/2025 04:45 PM
42004 15.5 3.95 5 103 44 93 5.10 -74 7 05/29/2025 04:30 PM
42003 15.5 3.94 7 102 44 91 5.10 -74 8 05/29/2025 04:15 PM
42002 15.5 3.94 0 102 43 92 5.10 -73 8 05/29/2025 04:00 PM
42001 15.5 3.94 6 100 44 90 5.10 -74 7 05/29/2025 03:45 PM
42000 15.5 3.94 7 100 43 89 5.10 -74 7 05/29/2025 03:30 PM
41999 15.5 3.94 0 100 42 90 5.10 -72 7 05/29/2025 03:15 PM
41998 15.5 3.94 7 100 41 93 5.10 -75 8 05/29/2025 03:00 PM
41997 15.4 4.09 0 97 41 88 5.10 -75 8 05/29/2025 02:45 PM